sensor_id;sensor_type;location;lat;lon;timestamp;temperature;humidity
9006;DHT22;62284;50.702;7.140;2022-08-18T00:02:01;21.80;94.10
9006;DHT22;62284;50.702;7.140;2022-08-18T00:04:28;21.80;94.10
9006;DHT22;62284;50.702;7.140;2022-08-18T00:06:55;21.70;94.60
9006;DHT22;62284;50.702;7.140;2022-08-18T00:09:22;21.70;94.50
9006;DHT22;62284;50.702;7.140;2022-08-18T00:11:49;21.60;94.50
9006;DHT22;62284;50.702;7.140;2022-08-18T00:14:18;21.60;94.70
9006;DHT22;62284;50.702;7.140;2022-08-18T00:16:48;21.40;94.80
9006;DHT22;62284;50.702;7.140;2022-08-18T00:19:15;21.30;95.20
9006;DHT22;62284;50.702;7.140;2022-08-18T00:21:42;21.20;95.40
9006;DHT22;62284;50.702;7.140;2022-08-18T00:24:09;21.30;95.70
9006;DHT22;62284;50.702;7.140;2022-08-18T00:26:36;21.20;95.60
9006;DHT22;62284;50.702;7.140;2022-08-18T00:29:03;21.30;95.50
9006;DHT22;62284;50.702;7.140;2022-08-18T00:31:30;21.30;95.50
9006;DHT22;62284;50.702;7.140;2022-08-18T00:33:59;21.30;95.50
9006;DHT22;62284;50.702;7.140;2022-08-18T00:36:26;21.40;95.40
9006;DHT22;62284;50.702;7.140;2022-08-18T00:38:53;21.20;95.50
9006;DHT22;62284;50.702;7.140;2022-08-18T00:41:20;21.10;95.80
9006;DHT22;62284;50.702;7.140;2022-08-18T00:43:51;21.00;96.00
9006;DHT22;62284;50.702;7.140;2022-08-18T00:46:21;21.00;96.00
9006;DHT22;62284;50.702;7.140;2022-08-18T00:48:48;21.00;96.10
9006;DHT22;62284;50.702;7.140;2022-08-18T00:51:21;21.00;96.20
9006;DHT22;62284;50.702;7.140;2022-08-18T00:53:52;20.90;96.30
9006;DHT22;62284;50.702;7.140;2022-08-18T00:56:25;20.90;96.40
9006;DHT22;62284;50.702;7.140;2022-08-18T00:58:57;21.00;96.50
9006;DHT22;62284;50.702;7.140;2022-08-18T01:01:28;20.80;96.60
9006;DHT22;62284;50.702;7.140;2022-08-18T01:04:00;20.80;96.80
9006;DHT22;62284;50.702;7.140;2022-08-18T01:06:36;20.70;97.10
9006;DHT22;62284;50.702;7.140;2022-08-18T01:09:05;20.70;97.30
9006;DHT22;62284;50.702;7.140;2022-08-18T01:11:33;20.70;97.20
9006;DHT22;62284;50.702;7.140;2022-08-18T01:14:01;20.70;97.20
9006;DHT22;62284;50.702;7.140;2022-08-18T01:16:29;20.70;97.30
9006;DHT22;62284;50.702;7.140;2022-08-18T01:19:13;20.70;97.10
9006;DHT22;62284;50.702;7.140;2022-08-18T01:22:05;20.50;97.50
9006;DHT22;62284;50.702;7.140;2022-08-18T01:24:36;20.60;97.60
9006;DHT22;62284;50.702;7.140;2022-08-18T01:27:21;20.60;97.60
9006;DHT22;62284;50.702;7.140;2022-08-18T01:29:49;20.60;97.60
9006;DHT22;62284;50.702;7.140;2022-08-18T01:32:18;20.40;97.70
9006;DHT22;62284;50.702;7.140;2022-08-18T01:34:45;20.30;98.20
9006;DHT22;62284;50.702;7.140;2022-08-18T01:37:14;20.20;98.50
9006;DHT22;62284;50.702;7.140;2022-08-18T01:39:44;20.10;98.60
9006;DHT22;62284;50.702;7.140;2022-08-18T01:42:13;19.90;98.70
9006;DHT22;62284;50.702;7.140;2022-08-18T01:44:41;19.90;99.10
9006;DHT22;62284;50.702;7.140;2022-08-18T01:47:10;20.00;98.90
9006;DHT22;62284;50.702;7.140;2022-08-18T01:49:37;20.10;99.20
9006;DHT22;62284;50.702;7.140;2022-08-18T01:52:08;20.30;98.90
9006;DHT22;62284;50.702;7.140;2022-08-18T01:54:35;20.40;98.70
9006;DHT22;62284;50.702;7.140;2022-08-18T01:57:03;20.40;99.20
9006;DHT22;62284;50.702;7.140;2022-08-18T01:59:30;20.30;98.70
9006;DHT22;62284;50.702;7.140;2022-08-18T02:02:00;20.40;98.80
9006;DHT22;62284;50.702;7.140;2022-08-18T02:04:29;20.30;98.60
9006;DHT22;62284;50.702;7.140;2022-08-18T02:06:58;20.20;98.70
9006;DHT22;62284;50.702;7.140;2022-08-18T02:09:25;20.10;98.90
9006;DHT22;62284;50.702;7.140;2022-08-18T02:11:52;20.00;99.10
9006;DHT22;62284;50.702;7.140;2022-08-18T02:14:21;20.00;99.20
9006;DHT22;62284;50.702;7.140;2022-08-18T02:16:48;20.10;99.40
9006;DHT22;62284;50.702;7.140;2022-08-18T02:19:15;20.10;99.30
9006;DHT22;62284;50.702;7.140;2022-08-18T02:21:42;20.10;99.20
9006;DHT22;62284;50.702;7.140;2022-08-18T02:24:08;19.90;99.30
9006;DHT22;62284;50.702;7.140;2022-08-18T02:26:35;19.90;99.30
9006;DHT22;62284;50.702;7.140;2022-08-18T02:29:02;19.80;99.40
9006;DHT22;62284;50.702;7.140;2022-08-18T02:31:30;19.70;99.60
9006;DHT22;62284;50.702;7.140;2022-08-18T02:33:57;19.70;99.40
9006;DHT22;62284;50.702;7.140;2022-08-18T02:36:25;19.70;99.60
9006;DHT22;62284;50.702;7.140;2022-08-18T02:38:53;19.50;99.90
9006;DHT22;62284;50.702;7.140;2022-08-18T02:41:20;19.60;99.90
9006;DHT22;62284;50.702;7.140;2022-08-18T02:43:47;19.50;99.90
9006;DHT22;62284;50.702;7.140;2022-08-18T02:46:14;19.60;99.90
9006;DHT22;62284;50.702;7.140;2022-08-18T02:48:42;19.60;99.90
9006;DHT22;62284;50.702;7.140;2022-08-18T02:51:12;19.70;99.90
9006;DHT22;62284;50.702;7.140;2022-08-18T02:53:41;19.60;99.90
9006;DHT22;62284;50.702;7.140;2022-08-18T02:56:10;19.60;99.90
9006;DHT22;62284;50.702;7.140;2022-08-18T02:58:46;19.50;99.90
9006;DHT22;62284;50.702;7.140;2022-08-18T03:01:13;19.50;99.90
9006;DHT22;62284;50.702;7.140;2022-08-18T03:03:41;19.30;99.90
9006;DHT22;62284;50.702;7.140;2022-08-18T03:06:09;19.30;99.90
9006;DHT22;62284;50.702;7.140;2022-08-18T03:08:36;19.30;99.90
9006;DHT22;62284;50.702;7.140;2022-08-18T03:11:03;19.30;99.90
9006;DHT22;62284;50.702;7.140;2022-08-18T03:13:30;19.30;99.90
9006;DHT22;62284;50.702;7.140;2022-08-18T03:15:56;19.40;99.90
9006;DHT22;62284;50.702;7.140;2022-08-18T03:18:24;19.40;99.90
9006;DHT22;62284;50.702;7.140;2022-08-18T03:20:52;19.40;99.90
9006;DHT22;62284;50.702;7.140;2022-08-18T03:23:19;19.30;99.90
9006;DHT22;62284;50.702;7.140;2022-08-18T03:25:48;19.40;99.90
9006;DHT22;62284;50.702;7.140;2022-08-18T03:28:16;19.40;99.90
9006;DHT22;62284;50.702;7.140;2022-08-18T03:30:43;19.40;99.90
9006;DHT22;62284;50.702;7.140;2022-08-18T03:33:10;19.40;99.90
9006;DHT22;62284;50.702;7.140;2022-08-18T03:35:37;19.50;99.90
9006;DHT22;62284;50.702;7.140;2022-08-18T03:38:06;19.50;99.90
9006;DHT22;62284;50.702;7.140;2022-08-18T03:40:33;19.40;99.90
9006;DHT22;62284;50.702;7.140;2022-08-18T03:43:02;19.50;99.90
9006;DHT22;62284;50.702;7.140;2022-08-18T03:45:32;19.60;99.90
9006;DHT22;62284;50.702;7.140;2022-08-18T03:47:59;19.60;99.90
9006;DHT22;62284;50.702;7.140;2022-08-18T03:50:27;19.80;99.90
9006;DHT22;62284;50.702;7.140;2022-08-18T03:52:54;19.80;99.90
9006;DHT22;62284;50.702;7.140;2022-08-18T03:55:26;19.90;99.90
9006;DHT22;62284;50.702;7.140;2022-08-18T03:57:57;19.90;99.90
9006;DHT22;62284;50.702;7.140;2022-08-18T04:00:26;19.90;99.90
9006;DHT22;62284;50.702;7.140;2022-08-18T04:02:54;20.10;99.90
9006;DHT22;62284;50.702;7.140;2022-08-18T04:05:21;20.10;99.90
9006;DHT22;62284;50.702;7.140;2022-08-18T04:07:48;20.30;99.70
9006;DHT22;62284;50.702;7.140;2022-08-18T04:10:15;20.30;99.80
9006;DHT22;62284;50.702;7.140;2022-08-18T04:12:43;20.30;99.70
9006;DHT22;62284;50.702;7.140;2022-08-18T04:15:10;20.30;99.70
9006;DHT22;62284;50.702;7.140;2022-08-18T04:17:37;20.30;99.70
9006;DHT22;62284;50.702;7.140;2022-08-18T04:20:05;20.40;99.60
9006;DHT22;62284;50.702;7.140;2022-08-18T04:22:32;20.40;99.60
9006;DHT22;62284;50.702;7.140;2022-08-18T04:24:59;20.40;99.50
9006;DHT22;62284;50.702;7.140;2022-08-18T04:27:28;20.40;99.40
9006;DHT22;62284;50.702;7.140;2022-08-18T04:29:56;20.40;99.40
9006;DHT22;62284;50.702;7.140;2022-08-18T04:32:23;20.40;99.50
9006;DHT22;62284;50.702;7.140;2022-08-18T04:34:50;20.40;99.60
9006;DHT22;62284;50.702;7.140;2022-08-18T04:37:18;20.30;99.70
9006;DHT22;62284;50.702;7.140;2022-08-18T04:39:45;20.20;99.80
9006;DHT22;62284;50.702;7.140;2022-08-18T04:42:12;20.20;99.80
9006;DHT22;62284;50.702;7.140;2022-08-18T04:44:39;20.30;99.90
9006;DHT22;62284;50.702;7.140;2022-08-18T04:47:08;20.20;99.90
9006;DHT22;62284;50.702;7.140;2022-08-18T04:49:36;20.20;99.90
9006;DHT22;62284;50.702;7.140;2022-08-18T04:52:04;20.20;99.90
9006;DHT22;62284;50.702;7.140;2022-08-18T04:54:49;20.20;99.90
9006;DHT22;62284;50.702;7.140;2022-08-18T04:57:17;20.10;99.90
9006;DHT22;62284;50.702;7.140;2022-08-18T04:59:48;20.10;99.90
9006;DHT22;62284;50.702;7.140;2022-08-18T05:02:17;20.10;99.90
9006;DHT22;62284;50.702;7.140;2022-08-18T05:04:45;20.10;99.90
9006;DHT22;62284;50.702;7.140;2022-08-18T05:07:15;20.20;99.90
9006;DHT22;62284;50.702;7.140;2022-08-18T05:09:43;20.20;99.90
9006;DHT22;62284;50.702;7.140;2022-08-18T05:12:11;20.20;99.90
9006;DHT22;62284;50.702;7.140;2022-08-18T05:14:39;20.20;99.90
9006;DHT22;62284;50.702;7.140;2022-08-18T05:17:06;20.20;99.90
9006;DHT22;62284;50.702;7.140;2022-08-18T05:19:34;20.30;99.90
9006;DHT22;62284;50.702;7.140;2022-08-18T05:22:02;20.50;99.90
9006;DHT22;62284;50.702;7.140;2022-08-18T05:24:30;20.60;99.90
9006;DHT22;62284;50.702;7.140;2022-08-18T05:27:00;20.60;99.90
9006;DHT22;62284;50.702;7.140;2022-08-18T05:29:28;20.50;99.90
9006;DHT22;62284;50.702;7.140;2022-08-18T05:32:00;20.60;99.90
9006;DHT22;62284;50.702;7.140;2022-08-18T05:34:31;20.60;99.90
9006;DHT22;62284;50.702;7.140;2022-08-18T05:37:07;20.70;99.90
9006;DHT22;62284;50.702;7.140;2022-08-18T05:39:39;20.70;99.90
9006;DHT22;62284;50.702;7.140;2022-08-18T05:42:13;20.80;99.90
9006;DHT22;62284;50.702;7.140;2022-08-18T05:44:44;20.70;99.90
9006;DHT22;62284;50.702;7.140;2022-08-18T05:47:14;20.80;99.90
9006;DHT22;62284;50.702;7.140;2022-08-18T05:49:44;21.00;99.90
9006;DHT22;62284;50.702;7.140;2022-08-18T05:52:17;21.00;99.90
9006;DHT22;62284;50.702;7.140;2022-08-18T05:54:48;21.00;99.90
9006;DHT22;62284;50.702;7.140;2022-08-18T05:57:40;20.90;99.90
9006;DHT22;62284;50.702;7.140;2022-08-18T06:00:08;20.90;99.90
9006;DHT22;62284;50.702;7.140;2022-08-18T06:02:39;20.90;99.90
9006;DHT22;62284;50.702;7.140;2022-08-18T06:05:13;21.00;99.90
9006;DHT22;62284;50.702;7.140;2022-08-18T06:07:45;21.10;99.90
9006;DHT22;62284;50.702;7.140;2022-08-18T06:10:14;21.00;99.90
9006;DHT22;62284;50.702;7.140;2022-08-18T06:12:43;21.00;99.90
9006;DHT22;62284;50.702;7.140;2022-08-18T06:15:15;21.00;99.90
9006;DHT22;62284;50.702;7.140;2022-08-18T06:21:14;20.70;99.90
9006;DHT22;62284;50.702;7.140;2022-08-18T06:23:54;20.70;99.90
9006;DHT22;62284;50.702;7.140;2022-08-18T06:26:25;20.70;99.90
9006;DHT22;62284;50.702;7.140;2022-08-18T06:29:18;20.70;99.90
9006;DHT22;62284;50.702;7.140;2022-08-18T06:31:55;20.80;99.90
9006;DHT22;62284;50.702;7.140;2022-08-18T06:34:30;20.70;99.90
9006;DHT22;62284;50.702;7.140;2022-08-18T06:37:11;20.80;99.90
9006;DHT22;62284;50.702;7.140;2022-08-18T06:39:46;20.70;99.90
9006;DHT22;62284;50.702;7.140;2022-08-18T06:42:16;20.70;99.90
9006;DHT22;62284;50.702;7.140;2022-08-18T06:44:46;20.80;99.90
9006;DHT22;62284;50.702;7.140;2022-08-18T06:47:24;21.00;99.90
9006;DHT22;62284;50.702;7.140;2022-08-18T06:50:03;21.00;99.90
9006;DHT22;62284;50.702;7.140;2022-08-18T06:52:33;20.90;99.90
9006;DHT22;62284;50.702;7.140;2022-08-18T06:55:05;20.90;99.90
9006;DHT22;62284;50.702;7.140;2022-08-18T06:57:34;20.90;99.90
9006;DHT22;62284;50.702;7.140;2022-08-18T07:00:07;21.00;99.90
9006;DHT22;62284;50.702;7.140;2022-08-18T07:02:44;21.10;99.90
9006;DHT22;62284;50.702;7.140;2022-08-18T07:05:18;20.90;99.90
9006;DHT22;62284;50.702;7.140;2022-08-18T07:08:04;20.90;99.90
9006;DHT22;62284;50.702;7.140;2022-08-18T07:10:35;21.00;99.90
9006;DHT22;62284;50.702;7.140;2022-08-18T07:13:21;20.90;99.90
9006;DHT22;62284;50.702;7.140;2022-08-18T07:15:50;20.90;99.90
9006;DHT22;62284;50.702;7.140;2022-08-18T07:18:25;20.80;99.90
9006;DHT22;62284;50.702;7.140;2022-08-18T07:20:54;20.80;99.90
9006;DHT22;62284;50.702;7.140;2022-08-18T07:23:33;20.70;99.90
9006;DHT22;62284;50.702;7.140;2022-08-18T07:26:10;20.80;99.90
9006;DHT22;62284;50.702;7.140;2022-08-18T07:28:41;20.80;99.90
9006;DHT22;62284;50.702;7.140;2022-08-18T07:31:33;20.90;99.90
9006;DHT22;62284;50.702;7.140;2022-08-18T07:34:05;20.80;99.90
9006;DHT22;62284;50.702;7.140;2022-08-18T07:36:37;20.80;99.90
9006;DHT22;62284;50.702;7.140;2022-08-18T07:39:12;20.80;99.90
9006;DHT22;62284;50.702;7.140;2022-08-18T07:41:48;20.80;99.90
9006;DHT22;62284;50.702;7.140;2022-08-18T07:44:20;20.70;99.90
9006;DHT22;62284;50.702;7.140;2022-08-18T07:46:53;20.70;99.90
9006;DHT22;62284;50.702;7.140;2022-08-18T07:49:26;20.80;99.90
9006;DHT22;62284;50.702;7.140;2022-08-18T07:52:02;20.60;99.90
9006;DHT22;62284;50.702;7.140;2022-08-18T07:54:42;20.50;99.90
9006;DHT22;62284;50.702;7.140;2022-08-18T07:57:18;20.70;99.90
9006;DHT22;62284;50.702;7.140;2022-08-18T07:59:51;20.60;99.90
9006;DHT22;62284;50.702;7.140;2022-08-18T08:02:27;20.60;99.90
9006;DHT22;62284;50.702;7.140;2022-08-18T08:05:06;20.70;99.90
9006;DHT22;62284;50.702;7.140;2022-08-18T08:07:40;20.90;99.90
9006;DHT22;62284;50.702;7.140;2022-08-18T08:10:23;21.10;99.90
9006;DHT22;62284;50.702;7.140;2022-08-18T08:13:06;21.10;99.90
9006;DHT22;62284;50.702;7.140;2022-08-18T08:15:44;20.90;99.90
9006;DHT22;62284;50.702;7.140;2022-08-18T08:18:17;20.90;99.90
9006;DHT22;62284;50.702;7.140;2022-08-18T08:20:50;21.00;99.90
9006;DHT22;62284;50.702;7.140;2022-08-18T08:23:30;21.00;99.90
9006;DHT22;62284;50.702;7.140;2022-08-18T08:26:18;21.10;99.90
9006;DHT22;62284;50.702;7.140;2022-08-18T08:28:56;21.10;99.90
9006;DHT22;62284;50.702;7.140;2022-08-18T08:31:34;21.00;99.90
9006;DHT22;62284;50.702;7.140;2022-08-18T08:34:11;21.00;99.90
9006;DHT22;62284;50.702;7.140;2022-08-18T08:36:42;21.10;99.90
9006;DHT22;62284;50.702;7.140;2022-08-18T08:39:16;21.10;99.90
9006;DHT22;62284;50.702;7.140;2022-08-18T08:41:47;21.10;99.90
9006;DHT22;62284;50.702;7.140;2022-08-18T08:44:21;21.10;99.90
9006;DHT22;62284;50.702;7.140;2022-08-18T08:46:53;21.20;99.90
9006;DHT22;62284;50.702;7.140;2022-08-18T08:49:29;21.30;99.90
9006;DHT22;62284;50.702;7.140;2022-08-18T08:52:02;21.40;99.90
9006;DHT22;62284;50.702;7.140;2022-08-18T08:54:39;21.50;99.90
9006;DHT22;62284;50.702;7.140;2022-08-18T08:57:09;21.80;99.90
9006;DHT22;62284;50.702;7.140;2022-08-18T08:59:39;21.70;99.70
9006;DHT22;62284;50.702;7.140;2022-08-18T09:02:23;21.90;99.30
9006;DHT22;62284;50.702;7.140;2022-08-18T09:04:55;21.90;98.90
9006;DHT22;62284;50.702;7.140;2022-08-18T09:07:37;21.70;99.40
9006;DHT22;62284;50.702;7.140;2022-08-18T09:10:24;21.80;99.40
9006;DHT22;62284;50.702;7.140;2022-08-18T09:13:08;22.00;99.00
9006;DHT22;62284;50.702;7.140;2022-08-18T09:18:45;22.10;98.70
9006;DHT22;62284;50.702;7.140;2022-08-18T09:21:26;22.20;98.60
9006;DHT22;62284;50.702;7.140;2022-08-18T09:24:04;22.50;98.20
9006;DHT22;62284;50.702;7.140;2022-08-18T09:26:45;22.80;97.80
9006;DHT22;62284;50.702;7.140;2022-08-18T09:29:16;22.60;97.40
9006;DHT22;62284;50.702;7.140;2022-08-18T09:35:04;23.00;96.50
9006;DHT22;62284;50.702;7.140;2022-08-18T09:37:44;22.60;97.30
9006;DHT22;62284;50.702;7.140;2022-08-18T09:40:15;22.60;97.40
9006;DHT22;62284;50.702;7.140;2022-08-18T09:43:09;22.60;97.60
9006;DHT22;62284;50.702;7.140;2022-08-18T09:45:56;22.50;97.60
9006;DHT22;62284;50.702;7.140;2022-08-18T09:48:28;22.50;97.70
9006;DHT22;62284;50.702;7.140;2022-08-18T09:54:05;22.30;97.80
9006;DHT22;62284;50.702;7.140;2022-08-18T09:59:57;22.20;98.00
9006;DHT22;62284;50.702;7.140;2022-08-18T10:05:36;22.30;98.00
9006;DHT22;62284;50.702;7.140;2022-08-18T10:08:34;22.30;98.10
9006;DHT22;62284;50.702;7.140;2022-08-18T10:11:27;22.70;97.50
9006;DHT22;62284;50.702;7.140;2022-08-18T10:14:08;22.90;97.00
9006;DHT22;62284;50.702;7.140;2022-08-18T10:16:46;22.90;96.80
9006;DHT22;62284;50.702;7.140;2022-08-18T10:19:20;22.60;97.30
9006;DHT22;62284;50.702;7.140;2022-08-18T10:22:04;22.60;97.50
9006;DHT22;62284;50.702;7.140;2022-08-18T10:24:37;22.70;97.20
9006;DHT22;62284;50.702;7.140;2022-08-18T10:27:09;22.70;97.00
9006;DHT22;62284;50.702;7.140;2022-08-18T10:29:52;22.70;97.10
9006;DHT22;62284;50.702;7.140;2022-08-18T10:32:36;22.90;96.80
9006;DHT22;62284;50.702;7.140;2022-08-18T10:35:05;23.10;96.30
9006;DHT22;62284;50.702;7.140;2022-08-18T10:37:53;23.30;96.50
9006;DHT22;62284;50.702;7.140;2022-08-18T10:40:22;23.60;95.70
9006;DHT22;62284;50.702;7.140;2022-08-18T10:42:51;24.20;94.80
9006;DHT22;62284;50.702;7.140;2022-08-18T10:45:23;24.80;94.00
9006;DHT22;62284;50.702;7.140;2022-08-18T10:48:07;25.40;92.50
9006;DHT22;62284;50.702;7.140;2022-08-18T10:50:40;25.60;90.80
9006;DHT22;62284;50.702;7.140;2022-08-18T10:53:15;25.30;91.70
9006;DHT22;62284;50.702;7.140;2022-08-18T10:55:49;25.20;91.60
9006;DHT22;62284;50.702;7.140;2022-08-18T10:58:47;24.90;91.60
9006;DHT22;62284;50.702;7.140;2022-08-18T11:01:38;24.50;92.60
9006;DHT22;62284;50.702;7.140;2022-08-18T11:04:11;24.40;93.00
9006;DHT22;62284;50.702;7.140;2022-08-18T11:06:50;24.30;92.80
9006;DHT22;62284;50.702;7.140;2022-08-18T11:09:25;24.20;93.20
9006;DHT22;62284;50.702;7.140;2022-08-18T11:11:54;24.10;93.10
9006;DHT22;62284;50.702;7.140;2022-08-18T11:17:32;24.40;92.70
9006;DHT22;62284;50.702;7.140;2022-08-18T11:20:05;24.50;92.80
9006;DHT22;62284;50.702;7.140;2022-08-18T11:22:35;24.80;92.10
9006;DHT22;62284;50.702;7.140;2022-08-18T11:25:17;25.00;91.50
9006;DHT22;62284;50.702;7.140;2022-08-18T11:27:46;25.00;91.40
9006;DHT22;62284;50.702;7.140;2022-08-18T11:30:13;24.90;91.70
9006;DHT22;62284;50.702;7.140;2022-08-18T11:32:40;25.00;91.40
9006;DHT22;62284;50.702;7.140;2022-08-18T11:35:11;25.80;90.30
9006;DHT22;62284;50.702;7.140;2022-08-18T11:37:43;26.10;88.50
9006;DHT22;62284;50.702;7.140;2022-08-18T11:40:30;26.00;87.20
9006;DHT22;62284;50.702;7.140;2022-08-18T11:43:01;26.60;85.50
9006;DHT22;62284;50.702;7.140;2022-08-18T11:45:33;27.00;82.30
9006;DHT22;62284;50.702;7.140;2022-08-18T11:48:16;27.50;79.70
9006;DHT22;62284;50.702;7.140;2022-08-18T11:50:47;27.20;77.80
9006;DHT22;62284;50.702;7.140;2022-08-18T11:53:24;27.70;77.10
9006;DHT22;62284;50.702;7.140;2022-08-18T11:56:15;28.70;71.10
9006;DHT22;62284;50.702;7.140;2022-08-18T11:58:44;28.90;66.00
9006;DHT22;62284;50.702;7.140;2022-08-18T12:01:27;28.90;66.50
9006;DHT22;62284;50.702;7.140;2022-08-18T12:03:55;29.00;63.80
9006;DHT22;62284;50.702;7.140;2022-08-18T12:06:25;28.30;67.50
9006;DHT22;62284;50.702;7.140;2022-08-18T12:08:57;27.90;67.60
9006;DHT22;62284;50.702;7.140;2022-08-18T12:11:29;27.60;68.30
9006;DHT22;62284;50.702;7.140;2022-08-18T12:14:05;27.40;69.60
9006;DHT22;62284;50.702;7.140;2022-08-18T12:16:39;27.10;69.90
9006;DHT22;62284;50.702;7.140;2022-08-18T12:19:08;26.90;70.60
9006;DHT22;62284;50.702;7.140;2022-08-18T12:21:40;26.70;72.20
9006;DHT22;62284;50.702;7.140;2022-08-18T12:24:12;26.70;72.80
9006;DHT22;62284;50.702;7.140;2022-08-18T12:26:42;26.50;73.80
9006;DHT22;62284;50.702;7.140;2022-08-18T12:29:09;26.70;75.40
9006;DHT22;62284;50.702;7.140;2022-08-18T12:31:36;26.80;74.60
9006;DHT22;62284;50.702;7.140;2022-08-18T12:34:03;27.00;73.20
9006;DHT22;62284;50.702;7.140;2022-08-18T12:36:31;27.60;71.80
9006;DHT22;62284;50.702;7.140;2022-08-18T12:38:58;28.00;69.60
9006;DHT22;62284;50.702;7.140;2022-08-18T12:41:25;28.70;67.40
9006;DHT22;62284;50.702;7.140;2022-08-18T12:43:53;29.10;64.90
9006;DHT22;62284;50.702;7.140;2022-08-18T12:46:20;29.50;62.10
9006;DHT22;62284;50.702;7.140;2022-08-18T12:48:48;29.40;62.20
9006;DHT22;62284;50.702;7.140;2022-08-18T12:51:15;30.00;59.70
9006;DHT22;62284;50.702;7.140;2022-08-18T12:53:42;30.80;57.10
9006;DHT22;62284;50.702;7.140;2022-08-18T12:56:17;31.20;55.50
9006;DHT22;62284;50.702;7.140;2022-08-18T12:58:45;31.40;53.80
9006;DHT22;62284;50.702;7.140;2022-08-18T13:01:14;30.70;55.20
9006;DHT22;62284;50.702;7.140;2022-08-18T13:03:40;30.60;55.10
9006;DHT22;62284;50.702;7.140;2022-08-18T13:06:09;30.10;55.80
9006;DHT22;62284;50.702;7.140;2022-08-18T13:08:36;29.50;57.40
9006;DHT22;62284;50.702;7.140;2022-08-18T13:11:03;28.80;58.50
9006;DHT22;62284;50.702;7.140;2022-08-18T13:13:35;29.20;59.40
9006;DHT22;62284;50.702;7.140;2022-08-18T13:16:02;29.70;57.10
9006;DHT22;62284;50.702;7.140;2022-08-18T13:18:31;30.20;57.30
9006;DHT22;62284;50.702;7.140;2022-08-18T13:20:58;30.80;54.20
9006;DHT22;62284;50.702;7.140;2022-08-18T13:23:26;30.60;55.10
9006;DHT22;62284;50.702;7.140;2022-08-18T13:25:53;30.70;53.80
9006;DHT22;62284;50.702;7.140;2022-08-18T13:28:20;30.50;53.20
9006;DHT22;62284;50.702;7.140;2022-08-18T13:30:47;30.30;55.80
9006;DHT22;62284;50.702;7.140;2022-08-18T13:33:15;30.50;54.90
9006;DHT22;62284;50.702;7.140;2022-08-18T13:35:44;30.60;54.80
9006;DHT22;62284;50.702;7.140;2022-08-18T13:38:13;31.30;53.40
9006;DHT22;62284;50.702;7.140;2022-08-18T13:40:40;31.30;52.60
9006;DHT22;62284;50.702;7.140;2022-08-18T13:43:07;31.80;51.70
9006;DHT22;62284;50.702;7.140;2022-08-18T13:45:35;32.10;50.60
9006;DHT22;62284;50.702;7.140;2022-08-18T13:48:02;32.70;49.40
9006;DHT22;62284;50.702;7.140;2022-08-18T13:50:30;32.50;49.40
9006;DHT22;62284;50.702;7.140;2022-08-18T13:52:58;32.60;48.80
9006;DHT22;62284;50.702;7.140;2022-08-18T13:55:26;33.60;48.00
9006;DHT22;62284;50.702;7.140;2022-08-18T13:57:54;34.20;45.40
9006;DHT22;62284;50.702;7.140;2022-08-18T14:00:22;33.60;45.50
9006;DHT22;62284;50.702;7.140;2022-08-18T14:02:50;33.50;45.70
9006;DHT22;62284;50.702;7.140;2022-08-18T14:05:20;32.20;46.90
9006;DHT22;62284;50.702;7.140;2022-08-18T14:07:47;32.40;48.00
9006;DHT22;62284;50.702;7.140;2022-08-18T14:10:16;32.70;47.60
9006;DHT22;62284;50.702;7.140;2022-08-18T14:12:44;32.60;47.20
9006;DHT22;62284;50.702;7.140;2022-08-18T14:15:13;32.30;47.40
9006;DHT22;62284;50.702;7.140;2022-08-18T14:17:41;32.20;48.30
9006;DHT22;62284;50.702;7.140;2022-08-18T14:20:09;32.10;47.60
9006;DHT22;62284;50.702;7.140;2022-08-18T14:22:56;32.00;48.40
9006;DHT22;62284;50.702;7.140;2022-08-18T14:25:42;32.90;47.60
9006;DHT22;62284;50.702;7.140;2022-08-18T14:28:27;33.50;45.40
9006;DHT22;62284;50.702;7.140;2022-08-18T14:30:55;33.10;46.00
9006;DHT22;62284;50.702;7.140;2022-08-18T14:33:25;32.70;46.90
9006;DHT22;62284;50.702;7.140;2022-08-18T14:35:52;33.20;46.10
9006;DHT22;62284;50.702;7.140;2022-08-18T14:38:19;33.70;44.90
9006;DHT22;62284;50.702;7.140;2022-08-18T14:40:48;34.10;44.20
9006;DHT22;62284;50.702;7.140;2022-08-18T14:43:17;33.90;43.30
9006;DHT22;62284;50.702;7.140;2022-08-18T14:45:47;33.40;45.20
9006;DHT22;62284;50.702;7.140;2022-08-18T14:48:16;33.30;44.90
9006;DHT22;62284;50.702;7.140;2022-08-18T14:50:46;33.10;45.50
9006;DHT22;62284;50.702;7.140;2022-08-18T14:53:15;32.90;44.90
9006;DHT22;62284;50.702;7.140;2022-08-18T14:55:44;32.10;46.30
9006;DHT22;62284;50.702;7.140;2022-08-18T14:58:13;31.20;47.40
9006;DHT22;62284;50.702;7.140;2022-08-18T15:00:40;30.60;48.90
9006;DHT22;62284;50.702;7.140;2022-08-18T15:03:07;30.20;50.10
9006;DHT22;62284;50.702;7.140;2022-08-18T15:05:34;30.00;50.60
9006;DHT22;62284;50.702;7.140;2022-08-18T15:08:02;29.90;51.40
9006;DHT22;62284;50.702;7.140;2022-08-18T15:10:30;30.40;50.70
9006;DHT22;62284;50.702;7.140;2022-08-18T15:12:59;31.30;49.80
9006;DHT22;62284;50.702;7.140;2022-08-18T15:15:28;32.40;47.80
9006;DHT22;62284;50.702;7.140;2022-08-18T15:17:55;33.00;46.20
9006;DHT22;62284;50.702;7.140;2022-08-18T15:20:24;32.80;45.60
9006;DHT22;62284;50.702;7.140;2022-08-18T15:22:52;32.90;45.30
9006;DHT22;62284;50.702;7.140;2022-08-18T15:25:37;33.40;45.40
9006;DHT22;62284;50.702;7.140;2022-08-18T15:28:12;34.00;44.10
9006;DHT22;62284;50.702;7.140;2022-08-18T15:30:43;34.60;42.30
9006;DHT22;62284;50.702;7.140;2022-08-18T15:33:11;34.60;42.40
9006;DHT22;62284;50.702;7.140;2022-08-18T15:35:39;34.50;42.30
9006;DHT22;62284;50.702;7.140;2022-08-18T15:38:06;34.50;42.20
9006;DHT22;62284;50.702;7.140;2022-08-18T15:40:33;34.80;42.20
9006;DHT22;62284;50.702;7.140;2022-08-18T15:43:01;34.40;41.40
9006;DHT22;62284;50.702;7.140;2022-08-18T15:45:34;33.10;43.40
9006;DHT22;62284;50.702;7.140;2022-08-18T15:48:05;32.60;44.30
9006;DHT22;62284;50.702;7.140;2022-08-18T15:50:32;32.90;44.60
9006;DHT22;62284;50.702;7.140;2022-08-18T15:53:00;32.60;43.70
9006;DHT22;62284;50.702;7.140;2022-08-18T15:55:30;31.80;45.00
9006;DHT22;62284;50.702;7.140;2022-08-18T15:57:58;31.40;46.30
9006;DHT22;62284;50.702;7.140;2022-08-18T16:00:27;31.50;47.00
9006;DHT22;62284;50.702;7.140;2022-08-18T16:02:57;31.60;46.30
9006;DHT22;62284;50.702;7.140;2022-08-18T16:05:28;31.80;45.90
9006;DHT22;62284;50.702;7.140;2022-08-18T16:07:57;31.60;46.00
9006;DHT22;62284;50.702;7.140;2022-08-18T16:10:28;31.90;46.30
9006;DHT22;62284;50.702;7.140;2022-08-18T16:12:57;32.20;45.40
9006;DHT22;62284;50.702;7.140;2022-08-18T16:15:25;31.90;45.30
9006;DHT22;62284;50.702;7.140;2022-08-18T16:17:54;31.60;45.80
9006;DHT22;62284;50.702;7.140;2022-08-18T16:20:22;31.60;45.90
9006;DHT22;62284;50.702;7.140;2022-08-18T16:22:51;31.80;45.50
9006;DHT22;62284;50.702;7.140;2022-08-18T16:25:19;31.60;45.00
9006;DHT22;62284;50.702;7.140;2022-08-18T16:27:46;31.20;45.50
9006;DHT22;62284;50.702;7.140;2022-08-18T16:30:15;31.10;45.90
9006;DHT22;62284;50.702;7.140;2022-08-18T16:32:42;31.40;45.30
9006;DHT22;62284;50.702;7.140;2022-08-18T16:35:09;31.10;45.90